createdAt,value
2023-08-14T00:00:49.411Z,5.00
2023-08-14T00:03:18.091Z,4.93
2023-08-14T00:05:46.760Z,5.10
2023-08-14T00:08:15.484Z,4.67
2023-08-14T00:10:44.519Z,5.10
2023-08-14T00:13:13.575Z,5.37
2023-08-14T00:15:42.232Z,4.63
2023-08-14T00:18:10.752Z,7.03
2023-08-14T00:20:39.546Z,5.53
2023-08-14T00:23:08.167Z,4.90
2023-08-14T00:25:36.775Z,5.00
2023-08-14T00:28:05.550Z,3.70
2023-08-14T00:30:34.141Z,4.73
2023-08-14T00:33:02.770Z,4.87
2023-08-14T00:35:31.283Z,5.40
2023-08-14T00:37:59.896Z,5.60
2023-08-14T00:40:28.569Z,5.00
2023-08-14T00:42:57.028Z,5.80
2023-08-14T00:45:36.761Z,5.20
2023-08-14T00:48:13.143Z,5.93
2023-08-14T00:50:41.701Z,6.73
2023-08-14T00:53:10.872Z,5.77
2023-08-14T00:55:39.947Z,5.07
2023-08-14T00:58:08.834Z,6.00
2023-08-14T01:00:38.082Z,5.93
2023-08-14T01:03:08.226Z,5.60
2023-08-14T01:05:37.052Z,5.63
2023-08-14T01:08:05.795Z,5.90
2023-08-14T01:11:04.126Z,5.57
2023-08-14T01:13:57.180Z,5.23
2023-08-14T01:16:35.668Z,5.10
2023-08-14T01:19:11.516Z,5.93
2023-08-14T01:22:21.219Z,5.47
2023-08-14T01:25:01.691Z,7.83
2023-08-14T01:27:31.077Z,5.80
2023-08-14T01:30:00.836Z,5.97
2023-08-14T01:32:29.416Z,7.10
2023-08-14T01:34:58.364Z,5.27
2023-08-14T01:37:57.595Z,5.93
2023-08-14T01:40:26.124Z,8.77
2023-08-14T01:43:04.775Z,6.13
2023-08-14T01:45:36.524Z,5.37
2023-08-14T01:48:07.001Z,6.27
2023-08-14T01:50:36.708Z,6.30
2023-08-14T01:53:05.385Z,6.27
2023-08-14T01:55:33.897Z,6.00
2023-08-14T01:58:02.405Z,6.60
2023-08-14T02:00:33.912Z,5.70
2023-08-14T02:03:03.038Z,6.73
2023-08-14T02:05:31.595Z,6.90
2023-08-14T02:08:00.096Z,7.50
2023-08-14T02:10:28.818Z,6.87
2023-08-14T02:12:57.292Z,7.00
2023-08-14T02:15:25.871Z,7.50
2023-08-14T02:17:54.408Z,7.40
2023-08-14T02:20:22.950Z,8.17
2023-08-14T02:22:51.439Z,7.47
2023-08-14T02:25:20.028Z,6.97
2023-08-14T02:27:48.557Z,6.80
2023-08-14T02:30:17.079Z,8.60
2023-08-14T02:32:45.634Z,7.90
2023-08-14T02:35:14.442Z,7.80
2023-08-14T02:37:42.903Z,9.27
2023-08-14T02:40:11.738Z,8.30
2023-08-14T02:42:40.266Z,8.77
2023-08-14T02:45:09.486Z,9.13
2023-08-14T02:47:38.031Z,8.53
2023-08-14T02:50:07.180Z,8.93
2023-08-14T02:52:35.700Z,8.67
2023-08-14T02:55:04.231Z,10.00
2023-08-14T02:57:32.791Z,9.13
2023-08-14T03:00:01.280Z,8.93
2023-08-14T03:02:29.839Z,9.83
2023-08-14T03:04:58.410Z,9.93
2023-08-14T03:07:26.880Z,8.40
2023-08-14T03:09:55.806Z,8.20
2023-08-14T03:12:24.358Z,9.53
2023-08-14T03:14:52.883Z,10.03
2023-08-14T03:17:21.482Z,10.37
2023-08-14T03:19:50.128Z,12.17
2023-08-14T03:22:19.015Z,10.67
2023-08-14T03:24:47.702Z,11.43
2023-08-14T03:27:16.202Z,10.00
2023-08-14T03:29:44.698Z,11.97
2023-08-14T03:32:13.352Z,11.83
2023-08-14T03:34:41.849Z,11.63
2023-08-14T03:37:12.555Z,12.77
2023-08-14T03:39:41.258Z,12.33
2023-08-14T03:42:09.781Z,12.47
2023-08-14T03:44:38.446Z,11.03
2023-08-14T03:47:07.113Z,12.20
2023-08-14T03:49:35.612Z,12.07
2023-08-14T03:52:04.179Z,12.80
2023-08-14T03:54:32.750Z,11.90
2023-08-14T03:57:01.252Z,12.13
2023-08-14T03:59:29.788Z,13.43
2023-08-14T04:01:58.363Z,13.63
2023-08-14T04:04:26.869Z,12.80
2023-08-14T04:06:55.487Z,13.57
2023-08-14T04:09:24.015Z,13.10
2023-08-14T04:11:52.837Z,12.60
2023-08-14T04:14:21.339Z,14.10
2023-08-14T04:16:50.039Z,13.30
2023-08-14T04:19:21.010Z,13.60
2023-08-14T04:21:49.794Z,13.00
2023-08-14T04:24:18.563Z,12.07
2023-08-14T04:26:47.140Z,13.63
2023-08-14T04:29:17.422Z,13.30
2023-08-14T04:31:46.069Z,14.57
2023-08-14T04:34:14.606Z,14.50
2023-08-14T04:36:43.393Z,14.63
2023-08-14T04:39:11.966Z,13.80
2023-08-14T04:41:40.508Z,13.23
2023-08-14T04:44:09.025Z,14.30
2023-08-14T04:46:53.513Z,14.90
2023-08-14T04:49:27.592Z,13.10
2023-08-14T04:51:56.227Z,13.30
2023-08-14T04:54:25.304Z,14.60
2023-08-14T04:56:53.806Z,14.87
2023-08-14T04:59:22.311Z,13.87
2023-08-14T05:01:50.926Z,12.90
2023-08-14T05:04:19.604Z,13.30
2023-08-14T05:06:48.160Z,15.60
2023-08-14T05:09:26.367Z,13.70
2023-08-14T05:11:56.233Z,13.23
2023-08-14T05:14:24.830Z,13.47
2023-08-14T05:16:53.650Z,15.50
2023-08-14T05:19:22.465Z,14.47
2023-08-14T05:21:51.116Z,13.60
2023-08-14T05:24:20.138Z,14.23
2023-08-14T05:26:48.738Z,15.60
2023-08-14T05:29:17.404Z,14.50
2023-08-14T05:31:45.985Z,14.20
2023-08-14T05:34:14.504Z,13.53
2023-08-14T05:36:43.017Z,14.67
2023-08-14T05:39:11.560Z,13.40
2023-08-14T05:41:40.093Z,13.77
2023-08-14T05:44:08.707Z,15.33
2023-08-14T05:46:37.233Z,13.30
2023-08-14T05:49:06.708Z,12.90
2023-08-14T05:51:35.226Z,12.97
2023-08-14T05:54:03.778Z,12.77
2023-08-14T05:56:32.697Z,13.57
2023-08-14T05:59:01.201Z,12.90
2023-08-14T06:01:29.723Z,13.07
2023-08-14T06:03:58.284Z,14.00
2023-08-14T06:06:26.835Z,13.00
2023-08-14T06:08:56.785Z,13.23
2023-08-14T06:11:26.866Z,12.40
2023-08-14T06:13:55.436Z,12.67
2023-08-14T06:16:24.082Z,13.20
2023-08-14T06:18:54.506Z,12.93
2023-08-14T06:21:23.537Z,13.33
2023-08-14T06:23:53.134Z,13.70
2023-08-14T06:26:23.105Z,13.57
2023-08-14T06:28:51.662Z,12.70
2023-08-14T06:31:20.206Z,12.53
2023-08-14T06:33:51.864Z,13.23
2023-08-14T06:36:20.915Z,14.17
2023-08-14T06:38:50.045Z,13.40
2023-08-14T06:41:18.642Z,12.70
2023-08-14T06:43:47.297Z,14.50
2023-08-14T06:46:15.909Z,13.30
2023-08-14T06:48:44.478Z,14.17
2023-08-14T06:51:13.016Z,14.33
2023-08-14T06:53:41.629Z,12.47
2023-08-14T06:56:10.796Z,13.53
2023-08-14T06:58:39.300Z,14.47
2023-08-14T07:01:08.916Z,14.50
2023-08-14T07:03:37.575Z,14.03
2023-08-14T07:06:06.460Z,15.00
2023-08-14T07:08:34.983Z,15.10
2023-08-14T07:11:03.452Z,13.83
2023-08-14T07:13:32.086Z,13.70
2023-08-14T07:16:00.862Z,15.60
2023-08-14T07:18:29.457Z,14.33
2023-08-14T07:21:00.154Z,14.67
2023-08-14T07:23:28.670Z,13.13
2023-08-14T07:26:01.791Z,13.23
2023-08-14T07:28:30.260Z,13.70
2023-08-14T07:30:58.801Z,13.67
2023-08-14T07:33:27.305Z,13.20
2023-08-14T07:35:57.076Z,13.47
2023-08-14T07:38:25.758Z,13.13
2023-08-14T07:40:55.427Z,13.00
2023-08-14T07:43:26.689Z,13.40
2023-08-14T07:45:56.127Z,13.87
2023-08-14T07:48:24.662Z,14.63
2023-08-14T07:50:56.700Z,13.47
2023-08-14T07:53:25.249Z,14.17
2023-08-14T07:55:53.787Z,14.77
2023-08-14T07:58:22.256Z,13.17
2023-08-14T08:00:50.800Z,12.67
2023-08-14T08:03:19.321Z,13.30
2023-08-14T08:05:48.411Z,13.93
2023-08-14T08:08:16.899Z,14.27
2023-08-14T08:10:45.380Z,12.33
2023-08-14T08:13:13.866Z,12.47
2023-08-14T08:15:42.484Z,13.97
2023-08-14T08:18:11.162Z,12.73
2023-08-14T08:20:39.744Z,13.07
2023-08-14T08:23:08.306Z,13.70
2023-08-14T08:25:36.765Z,12.00
2023-08-14T08:28:05.494Z,13.43
2023-08-14T08:30:33.990Z,13.20
2023-08-14T08:33:04.095Z,12.63
2023-08-14T08:35:32.794Z,11.50
2023-08-14T08:38:01.311Z,12.37
2023-08-14T08:40:30.866Z,13.07
2023-08-14T08:43:02.229Z,12.30
2023-08-14T08:45:34.230Z,13.23
2023-08-14T08:48:04.379Z,12.73
2023-08-14T08:50:33.235Z,12.93
2023-08-14T08:53:02.178Z,11.60
2023-08-14T08:55:31.208Z,12.80
2023-08-14T08:58:00.445Z,13.23
2023-08-14T09:00:28.988Z,11.70
2023-08-14T09:02:57.531Z,11.10
2023-08-14T09:05:26.473Z,10.70
2023-08-14T09:07:55.021Z,11.40
2023-08-14T09:10:23.556Z,11.03
2023-08-14T09:12:52.080Z,12.50
2023-08-14T09:15:20.542Z,12.97
2023-08-14T09:17:49.095Z,12.20
2023-08-14T09:20:24.442Z,13.00
2023-08-14T09:23:01.087Z,11.60
2023-08-14T09:25:29.661Z,12.03
2023-08-14T09:27:58.582Z,12.07
2023-08-14T09:30:30.874Z,12.63
2023-08-14T09:32:59.491Z,11.50
2023-08-14T09:35:28.015Z,13.40
2023-08-14T09:37:56.540Z,11.63
2023-08-14T09:40:25.097Z,13.30
2023-08-14T09:42:55.001Z,11.53
2023-08-14T09:45:26.204Z,11.57
2023-08-14T09:48:05.796Z,11.17
2023-08-14T09:50:34.744Z,10.53
2023-08-14T09:53:04.086Z,11.23
2023-08-14T09:55:35.418Z,11.27
2023-08-14T09:58:03.930Z,11.73
2023-08-14T10:00:35.858Z,11.83
2023-08-14T10:03:09.279Z,10.17
2023-08-14T10:05:39.971Z,11.63
2023-08-14T10:08:10.759Z,10.73
2023-08-14T10:10:44.825Z,9.93
2023-08-14T10:13:18.189Z,10.07
2023-08-14T10:15:50.918Z,10.83
2023-08-14T10:18:21.261Z,11.77
2023-08-14T10:20:52.198Z,11.77
2023-08-14T10:23:21.550Z,11.83
2023-08-14T10:25:52.819Z,10.40
2023-08-14T10:28:22.696Z,10.57
2023-08-14T10:30:51.753Z,10.10
2023-08-14T10:33:21.041Z,10.17
2023-08-14T10:35:57.872Z,10.63
2023-08-14T10:38:48.599Z,10.20
2023-08-14T10:41:20.986Z,10.40
2023-08-14T10:43:55.593Z,8.87
2023-08-14T10:46:24.436Z,10.10
2023-08-14T10:48:54.846Z,9.30
2023-08-14T10:51:23.891Z,10.23
2023-08-14T10:54:10.246Z,10.47
2023-08-14T10:56:47.421Z,9.97
2023-08-14T10:59:30.210Z,9.90
2023-08-14T11:02:11.539Z,9.40
2023-08-14T11:05:03.446Z,10.50
2023-08-14T11:07:34.850Z,9.23
2023-08-14T11:10:06.757Z,9.73
2023-08-14T11:12:35.704Z,9.73
2023-08-14T11:15:04.330Z,9.77
2023-08-14T11:17:32.846Z,9.70
2023-08-14T11:20:03.253Z,9.57
2023-08-14T11:22:31.750Z,9.20
2023-08-14T11:25:00.271Z,8.73
2023-08-14T11:27:28.777Z,8.60
2023-08-14T11:30:00.401Z,10.67
2023-08-14T11:32:31.854Z,9.73
2023-08-14T11:35:00.479Z,8.47
2023-08-14T11:37:28.971Z,8.87
2023-08-14T11:39:57.417Z,8.87
2023-08-14T11:42:25.933Z,12.17
2023-08-14T11:44:54.364Z,9.27
2023-08-14T11:47:24.183Z,8.80
2023-08-14T11:49:52.897Z,8.77
2023-08-14T11:52:23.994Z,9.63
2023-08-14T11:54:53.052Z,8.87
2023-08-14T11:57:24.460Z,10.33
2023-08-14T11:59:53.498Z,8.70
2023-08-14T12:02:22.948Z,8.77
2023-08-14T12:05:03.069Z,8.90
2023-08-14T12:07:33.011Z,8.90
2023-08-14T12:10:01.982Z,9.30
2023-08-14T12:12:31.100Z,9.00
2023-08-14T12:15:01.220Z,8.80
2023-08-14T12:17:31.959Z,9.23
2023-08-14T12:20:05.859Z,8.80
2023-08-14T12:22:34.298Z,11.70
2023-08-14T12:25:06.686Z,8.53
2023-08-14T12:27:35.292Z,8.07
2023-08-14T12:30:04.715Z,8.40
2023-08-14T12:32:33.343Z,8.67
2023-08-14T12:35:01.934Z,8.87
2023-08-14T12:37:30.474Z,8.63
2023-08-14T12:39:58.991Z,7.83
2023-08-14T12:42:27.509Z,8.90
2023-08-14T12:44:56.018Z,7.33
2023-08-14T12:47:25.003Z,8.93
2023-08-14T12:49:54.337Z,9.07
2023-08-14T12:52:22.920Z,8.57
2023-08-14T12:55:04.675Z,8.27
2023-08-14T12:57:34.885Z,8.30
2023-08-14T13:00:04.645Z,9.27
2023-08-14T13:02:33.261Z,8.90
2023-08-14T13:05:01.827Z,8.70
2023-08-14T13:07:30.706Z,8.10
2023-08-14T13:09:59.278Z,8.70
2023-08-14T13:12:27.792Z,9.40
2023-08-14T13:14:56.506Z,7.70
2023-08-14T13:17:25.210Z,9.47
2023-08-14T13:19:55.563Z,8.30
2023-08-14T13:22:24.080Z,8.20
2023-08-14T13:24:52.627Z,9.00
2023-08-14T13:27:21.422Z,8.03
2023-08-14T13:29:50.199Z,8.60
2023-08-14T13:32:18.820Z,10.23
2023-08-14T13:34:47.495Z,18.40
2023-08-14T13:37:16.028Z,19.97
2023-08-14T13:39:45.726Z,19.27
2023-08-14T13:42:14.212Z,32.07
2023-08-14T13:44:42.711Z,26.17
2023-08-14T13:47:11.139Z,15.70
2023-08-14T13:49:40.234Z,11.03
2023-08-14T13:52:08.941Z,9.37
2023-08-14T13:54:37.387Z,8.40
2023-08-14T13:57:05.965Z,9.37
2023-08-14T13:59:34.464Z,10.33
2023-08-14T14:02:04.175Z,19.40
2023-08-14T14:04:32.829Z,17.90
2023-08-14T14:07:02.641Z,24.80
2023-08-14T14:09:31.264Z,25.70
2023-08-14T14:12:01.226Z,21.87
2023-08-14T14:14:29.704Z,13.17
2023-08-14T14:17:00.458Z,11.90
2023-08-14T14:19:30.510Z,9.97
2023-08-14T14:22:00.253Z,9.87
2023-08-14T14:24:30.744Z,9.07
2023-08-14T14:26:59.184Z,9.40
2023-08-14T14:29:27.860Z,8.73
2023-08-14T14:31:56.371Z,8.17
2023-08-14T14:34:26.106Z,9.00
2023-08-14T14:36:56.031Z,7.53
2023-08-14T14:39:24.603Z,8.07
2023-08-14T14:41:53.074Z,10.17
2023-08-14T14:44:21.578Z,9.03
2023-08-14T14:46:50.037Z,9.50
2023-08-14T14:49:18.549Z,8.20
2023-08-14T14:51:46.990Z,8.03
2023-08-14T14:54:15.519Z,10.73
2023-08-14T14:56:44.055Z,8.90
2023-08-14T14:59:12.500Z,8.63
2023-08-14T15:01:42.184Z,11.30
2023-08-14T15:04:10.727Z,10.60
2023-08-14T15:06:39.213Z,10.43
2023-08-14T15:09:08.998Z,10.10
2023-08-14T15:11:38.002Z,9.23
2023-08-14T15:14:06.597Z,10.83
2023-08-14T15:16:35.298Z,8.57
2023-08-14T15:19:03.805Z,14.83
2023-08-14T15:21:32.318Z,9.60
2023-08-14T15:24:00.760Z,10.73
2023-08-14T15:26:29.451Z,9.37
2023-08-14T15:28:57.895Z,9.53
2023-08-14T15:31:26.440Z,10.40
2023-08-14T15:33:55.025Z,9.37
2023-08-14T15:36:23.471Z,8.20
2023-08-14T15:38:51.945Z,8.40
2023-08-14T15:41:20.439Z,12.60
2023-08-14T15:43:48.897Z,10.33
2023-08-14T15:46:17.406Z,11.93
2023-08-14T15:48:46.788Z,9.60
2023-08-14T15:51:15.344Z,9.27
2023-08-14T15:53:43.822Z,11.73
2023-08-14T15:56:12.305Z,8.63
2023-08-14T15:58:42.094Z,9.00
2023-08-14T16:01:10.718Z,10.50
2023-08-14T16:03:39.350Z,8.53
2023-08-14T16:06:08.108Z,10.17
2023-08-14T16:08:36.688Z,9.37
2023-08-14T16:11:05.163Z,9.67
2023-08-14T16:13:34.522Z,10.50
2023-08-14T16:16:02.990Z,9.10
2023-08-14T16:18:31.470Z,10.43
2023-08-14T16:21:00.542Z,9.50
2023-08-14T16:23:29.221Z,11.10
2023-08-14T16:25:57.826Z,8.97
2023-08-14T16:28:26.375Z,8.67
2023-08-14T16:30:55.558Z,9.23
2023-08-14T16:33:24.164Z,9.77
2023-08-14T16:35:54.020Z,8.33
2023-08-14T16:38:22.490Z,9.07
2023-08-14T16:40:51.031Z,8.73
2023-08-14T16:43:19.581Z,8.50
2023-08-14T16:45:51.572Z,8.10
2023-08-14T16:48:20.037Z,7.80
2023-08-14T16:50:50.195Z,9.03
2023-08-14T16:53:18.704Z,8.27
2023-08-14T16:55:47.190Z,7.67
2023-08-14T16:58:15.777Z,8.67
2023-08-14T17:00:44.209Z,8.63
2023-08-14T17:03:12.770Z,8.10
2023-08-14T17:05:41.311Z,10.30
2023-08-14T17:08:09.804Z,8.07
2023-08-14T17:10:38.667Z,7.97
2023-08-14T17:13:07.321Z,8.73
2023-08-14T17:15:42.856Z,8.43
2023-08-14T17:18:11.342Z,7.90
2023-08-14T17:20:50.522Z,8.50
2023-08-14T17:23:22.155Z,7.40
2023-08-14T17:26:01.841Z,7.50
2023-08-14T17:28:30.725Z,7.57
2023-08-14T17:31:00.605Z,7.13
2023-08-14T17:33:31.874Z,8.10
2023-08-14T17:36:00.647Z,8.00
2023-08-14T17:38:29.166Z,7.60
2023-08-14T17:40:57.739Z,6.90
2023-08-14T17:43:26.191Z,7.50
2023-08-14T17:45:54.692Z,8.97
2023-08-14T17:48:23.173Z,8.20
2023-08-14T17:50:55.243Z,8.10
2023-08-14T17:53:24.196Z,7.50
2023-08-14T17:55:52.946Z,7.63
2023-08-14T17:58:22.378Z,7.47
2023-08-14T18:00:54.011Z,7.00
2023-08-14T18:03:26.052Z,7.43
2023-08-14T18:05:55.516Z,7.97
2023-08-14T18:08:24.253Z,7.13
2023-08-14T18:10:52.693Z,9.40
2023-08-14T18:13:22.017Z,6.63
2023-08-14T18:15:52.075Z,9.07
2023-08-14T18:18:20.727Z,6.30
2023-08-14T18:20:53.933Z,8.37
2023-08-14T18:23:23.113Z,7.47
2023-08-14T18:25:56.116Z,7.13
2023-08-14T18:28:25.225Z,7.50
2023-08-14T18:30:54.230Z,7.93
2023-08-14T18:33:22.728Z,6.63
2023-08-14T18:35:51.232Z,6.30
2023-08-14T18:38:19.698Z,6.80
2023-08-14T18:40:48.172Z,9.07
2023-08-14T18:43:16.695Z,8.90
2023-08-14T18:45:45.160Z,7.60
2023-08-14T18:48:13.925Z,7.67
2023-08-14T18:50:42.410Z,6.87
2023-08-14T18:53:11.537Z,7.13
2023-08-14T18:55:40.482Z,7.63
2023-08-14T18:58:09.346Z,7.93
2023-08-14T19:00:37.977Z,7.13
2023-08-14T19:03:06.804Z,15.80
2023-08-14T19:05:35.302Z,6.93
2023-08-14T19:08:05.717Z,7.03
2023-08-14T19:10:37.595Z,8.60
2023-08-14T19:13:06.368Z,6.10
2023-08-14T19:15:34.988Z,7.33
2023-08-14T19:18:04.004Z,7.30
2023-08-14T19:20:32.546Z,11.03
2023-08-14T19:23:00.975Z,8.23
2023-08-14T19:25:29.460Z,6.57
2023-08-14T19:28:00.200Z,7.23
2023-08-14T19:30:31.627Z,6.13
2023-08-14T19:33:00.145Z,7.90
2023-08-14T19:35:29.473Z,6.80
2023-08-14T19:37:57.912Z,8.67
2023-08-14T19:40:26.399Z,6.03
2023-08-14T19:42:54.872Z,8.23
2023-08-14T19:45:23.682Z,6.43
2023-08-14T19:47:52.268Z,6.43
2023-08-14T19:50:20.871Z,7.10
2023-08-14T19:52:49.296Z,6.83
2023-08-14T19:55:17.813Z,6.50
2023-08-14T19:57:46.330Z,8.10
2023-08-14T20:00:15.105Z,6.57
2023-08-14T20:02:43.559Z,5.77
2023-08-14T20:05:12.229Z,7.07
2023-08-14T20:07:40.647Z,7.23
2023-08-14T20:10:09.845Z,7.50
2023-08-14T20:12:38.319Z,6.57
2023-08-14T20:15:08.524Z,5.93
2023-08-14T20:17:37.211Z,5.83
2023-08-14T20:20:06.717Z,8.63
2023-08-14T20:22:35.195Z,9.00
2023-08-14T20:25:03.658Z,6.23
2023-08-14T20:27:32.072Z,6.33
2023-08-14T20:30:00.586Z,5.47
2023-08-14T20:32:29.058Z,5.30
2023-08-14T20:34:57.496Z,6.10
2023-08-14T20:37:25.994Z,5.53
2023-08-14T20:39:54.517Z,5.80
2023-08-14T20:42:26.087Z,5.63
2023-08-14T20:44:54.598Z,5.80
2023-08-14T20:47:23.112Z,7.03
2023-08-14T20:49:51.817Z,6.30
2023-08-14T20:52:24.008Z,6.17
2023-08-14T20:54:53.256Z,6.37
2023-08-14T20:57:22.767Z,5.47
2023-08-14T20:59:51.259Z,5.80
2023-08-14T21:02:20.038Z,5.30
2023-08-14T21:04:48.694Z,6.70
2023-08-14T21:07:17.526Z,6.20
2023-08-14T21:09:46.232Z,6.57
2023-08-14T21:12:14.829Z,5.43
2023-08-14T21:14:43.263Z,6.63
2023-08-14T21:17:11.778Z,6.10
2023-08-14T21:19:40.209Z,5.50
2023-08-14T21:22:08.779Z,5.20
2023-08-14T21:24:37.244Z,5.77
2023-08-14T21:27:05.770Z,5.57
2023-08-14T21:29:34.236Z,5.17
2023-08-14T21:32:02.687Z,5.80
2023-08-14T21:34:31.283Z,5.50
2023-08-14T21:36:59.794Z,6.30
2023-08-14T21:39:28.347Z,5.30
2023-08-14T21:41:56.782Z,5.10
2023-08-14T21:44:25.285Z,5.13
2023-08-14T21:46:53.697Z,6.13
2023-08-14T21:49:22.118Z,4.60
2023-08-14T21:51:50.654Z,5.03
2023-08-14T21:54:22.232Z,6.07
2023-08-14T21:56:50.735Z,5.10
2023-08-14T21:59:19.527Z,5.53
2023-08-14T22:01:49.546Z,5.30
2023-08-14T22:04:18.074Z,5.20
2023-08-14T22:06:46.615Z,6.03
2023-08-14T22:09:18.786Z,4.83
2023-08-14T22:11:54.047Z,5.40
2023-08-14T22:14:22.934Z,4.83
2023-08-14T22:16:52.240Z,4.70
2023-08-14T22:19:20.703Z,6.17
2023-08-14T22:21:49.123Z,4.70
2023-08-14T22:24:28.123Z,5.10
2023-08-14T22:27:06.663Z,5.03
2023-08-14T22:29:35.384Z,4.67
2023-08-14T22:32:03.877Z,5.20
2023-08-14T22:34:32.318Z,5.07
2023-08-14T22:37:00.877Z,4.60
2023-08-14T22:39:31.596Z,4.43
2023-08-14T22:42:00.537Z,5.17
2023-08-14T22:44:29.001Z,5.03
2023-08-14T22:46:57.428Z,5.10
2023-08-14T22:49:25.897Z,5.10
2023-08-14T22:51:54.337Z,5.00
2023-08-14T22:54:22.786Z,4.70
2023-08-14T22:56:51.207Z,4.60
2023-08-14T22:59:19.774Z,4.93
2023-08-14T23:01:48.209Z,7.70
2023-08-14T23:04:16.768Z,4.50
2023-08-14T23:06:45.361Z,5.27
2023-08-14T23:09:14.008Z,5.10
2023-08-14T23:11:42.908Z,5.50
2023-08-14T23:14:11.425Z,5.80
2023-08-14T23:16:40.118Z,4.43
2023-08-14T23:19:08.608Z,5.30
2023-08-14T23:21:37.143Z,4.63
2023-08-14T23:24:05.822Z,4.27
2023-08-14T23:26:34.253Z,4.70
2023-08-14T23:29:02.782Z,5.23
2023-08-14T23:31:31.268Z,4.90
2023-08-14T23:33:59.758Z,5.20
2023-08-14T23:36:28.254Z,4.80
2023-08-14T23:38:56.710Z,5.23
2023-08-14T23:41:25.157Z,5.23
2023-08-14T23:43:53.589Z,4.90
2023-08-14T23:46:22.048Z,4.33
2023-08-14T23:48:50.494Z,5.17
2023-08-14T23:51:18.931Z,5.03
2023-08-14T23:53:47.387Z,4.73
2023-08-14T23:56:15.857Z,5.10
2023-08-14T23:58:44.410Z,6.50
